»·PEaware :: N149CD KMYF-KLGB

N149CD :: KMYF-KLGB

FLIGHT INFORMATION

Flight Status: Arrived
Operator: Privately registered:
United States
More flights under this callsign
Pilot: Nathan E. (30132)
Aircraft: CIRRUS SR-22
(SR22)
More flights by this aircraft type
Origin: KMYF Montgomery
United States
Destination: KLGB Long Beach
United States
More flights between these airports :: More routes between these airports
Route: OCN V23 SLI
File this flight plan on PilotEdge
Remarks: TEC route SANP3
Altitude:
(Current/Filed)
6,000ft
Speed:
(Current/Filed)
170kts
Departed: 21-Jan-21 11:36 AM
Arrived: 21-Jan-21 12:14 PM
Distance/Time
Traveled:
79nm/0:38
Distance/Time
To Go:
Arrived

Flight Plot

Page will automatically refresh every two minutes.


Map Options




Map Legend


Flown Route
Filed Route
Departure Airport
Arrival Airport
Navaid (VOR, NDB)
Fix

Horizontal Profiles

Position Reports

Time Latitude Longitude Heading Altitude Ground
Speed
21-Jan-21 11:13 32.813425 -117.141509 22 414ft 0kts
21-Jan-21 11:14 32.813425 -117.141509 22 414ft 0kts
21-Jan-21 11:15 32.813425 -117.141509 22 414ft 0kts
21-Jan-21 11:16 32.813425 -117.141509 22 414ft 0kts
21-Jan-21 11:17 32.813425 -117.141509 22 414ft 0kts
21-Jan-21 11:18 32.813425 -117.141509 22 414ft 0kts
21-Jan-21 11:19 32.813425 -117.141509 22 414ft 0kts
21-Jan-21 11:20 32.813425 -117.141509 22 414ft 0kts
21-Jan-21 11:21 32.813425 -117.141509 22 414ft 0kts
21-Jan-21 11:22 32.813425 -117.141509 22 414ft 0kts
21-Jan-21 11:23 32.813425 -117.141509 22 414ft 0kts
21-Jan-21 11:24 32.813425 -117.141509 22 414ft 0kts
21-Jan-21 11:25 32.813846 -117.140932 24 416ft 4kts
21-Jan-21 11:26 32.814243 -117.140694 53 416ft 6kts
21-Jan-21 11:27 32.813188 -117.137793 115 419ft 13kts
21-Jan-21 11:28 32.811559 -117.133799 119 416ft 13kts
21-Jan-21 11:29 32.811939 -117.131211 303 421ft 0kts
21-Jan-21 11:30 32.811939 -117.131211 303 421ft 0kts
21-Jan-21 11:31 32.811939 -117.131211 303 421ft 0kts
21-Jan-21 11:32 32.811939 -117.131211 303 421ft 0kts
21-Jan-21 11:33 32.811939 -117.131211 303 421ft 0kts
21-Jan-21 11:34 32.812954 -117.131477 294 422ft 10kts
21-Jan-21 11:35 32.821500 -117.160898 280 1228ft 123kts
21-Jan-21 11:36 32.828256 -117.200675 280 2546ft 121kts
21-Jan-21 11:37 32.834758 -117.239908 280 3710ft 121kts
21-Jan-21 11:38 32.841328 -117.279377 281 4764ft 121kts
21-Jan-21 11:39 32.847948 -117.318829 281 5714ft 121kts
21-Jan-21 11:40 32.855218 -117.361850 281 6004ft 145kts
21-Jan-21 11:41 32.863283 -117.409559 281 5996ft 148kts
21-Jan-21 11:42 32.871086 -117.457486 281 5994ft 148kts
21-Jan-21 11:43 32.899748 -117.479207 3 5996ft 151kts
21-Jan-21 11:44 32.941961 -117.472308 5 5990ft 151kts
21-Jan-21 11:45 32.983685 -117.464807 6 5988ft 151kts
21-Jan-21 11:46 33.025409 -117.457196 6 5989ft 151kts
21-Jan-21 11:47 33.067374 -117.449520 6 5989ft 152kts
21-Jan-21 11:48 33.109574 -117.441791 6 5990ft 153kts
21-Jan-21 11:49 33.151926 -117.434026 6 5992ft 154kts
21-Jan-21 11:50 33.194820 -117.426154 7 5994ft 154kts
21-Jan-21 11:51 33.238219 -117.419199 346 5995ft 153kts
21-Jan-21 11:52 33.270578 -117.452800 316 5999ft 154kts
21-Jan-21 11:53 33.301572 -117.488714 316 6000ft 155kts
21-Jan-21 11:54 33.332728 -117.525012 316 6009ft 155kts
21-Jan-21 11:55 33.364226 -117.561763 316 6009ft 155kts
21-Jan-21 11:56 33.395458 -117.598246 316 6009ft 155kts
21-Jan-21 11:57 33.427274 -117.635454 316 6009ft 155kts
21-Jan-21 11:58 33.458675 -117.672217 315 6009ft 155kts
21-Jan-21 11:59 33.490717 -117.709782 315 6009ft 155kts
21-Jan-21 12:00 33.522554 -117.747174 315 6009ft 155kts
21-Jan-21 12:01 33.554424 -117.784642 315 6009ft 155kts
21-Jan-21 12:02 33.586327 -117.822162 315 5999ft 155kts
21-Jan-21 12:03 33.617949 -117.859400 316 5998ft 152kts
21-Jan-21 12:04 33.647848 -117.894615 316 5152ft 140kts
21-Jan-21 12:05 33.674448 -117.927608 292 4271ft 120kts
21-Jan-21 12:06 33.685596 -117.965674 288 3998ft 113kts
21-Jan-21 12:07 33.696443 -118.003516 294 3963ft 113kts
21-Jan-21 12:08 33.718473 -118.031484 313 2905ft 111kts
21-Jan-21 12:09 33.740841 -118.058426 312 2039ft 105kts
21-Jan-21 12:10 33.762971 -118.085161 313 1406ft 112kts
21-Jan-21 12:11 33.785333 -118.112129 312 813ft 99kts
21-Jan-21 12:12 33.803793 -118.134539 311 259ft 81kts
21-Jan-21 12:13 33.814932 -118.148614 268 36ft 12kts
21-Jan-21 12:14 33.814926 -118.149374 269 36ft 11kts
21-Jan-21 12:15 33.813121 -118.151299 264 38ft 10kts
21-Jan-21 12:16 33.812681 -118.153593 90 41ft 0kts

Navigation Log

Ident Type
Flight plan parsing failed, navigation log unavailable